< < Back
Terminal Aerodrome Forecast


Current Version              Previous Versions:   1  2  3  4  5  6  7  8  9  

Terminal Aerodrome Forecast

131
FTUS44 KBMX 311700
TAFMGM
TAF
KMGM 311733Z 3118/0118 30008KT P6SM SCT070
     FM010100 31015KT P6SM FEW070
     FM011300 31016G23KT P6SM SKC=

Latest METAR

056
SAUS80 KWBC 312200
MTRMGM
METAR KMGM 312153Z 35012G19KT 10SM FEW070 SCT095 SCT110 19/07 A2994 RMK
AO2 SLP137 T01940067


USA.gov is the U.S. government's official web portal to all federal, state and local government web resources and services.